createdAt,value
2018-03-19T00:01:42.772Z,69.76
2018-03-19T00:04:11.388Z,68.82
2018-03-19T00:06:40.713Z,69.63
2018-03-19T00:09:09.550Z,69.74
2018-03-19T00:11:38.101Z,68.28
2018-03-19T00:14:06.660Z,69.52
2018-03-19T00:16:36.014Z,69.56
2018-03-19T00:19:04.840Z,68.10
2018-03-19T00:21:34.492Z,68.52
2018-03-19T00:24:03.834Z,68.66
2018-03-19T00:26:32.399Z,69.01
2018-03-19T00:29:00.996Z,70.34
2018-03-19T00:31:29.607Z,69.87
2018-03-19T00:33:59.597Z,70.86
2018-03-19T00:36:28.158Z,69.64
2018-03-19T00:38:56.764Z,70.20
2018-03-19T00:41:25.382Z,70.30
2018-03-19T00:43:54.693Z,69.52
2018-03-19T00:46:23.425Z,69.84
2018-03-19T00:48:51.978Z,68.82
2018-03-19T00:51:20.524Z,69.59
2018-03-19T00:53:49.917Z,69.26
2018-03-19T00:56:19.236Z,69.22
2018-03-19T00:58:50.603Z,69.62
2018-03-19T01:01:19.156Z,68.87
2018-03-19T01:03:48.472Z,68.93
2018-03-19T01:06:17.216Z,68.59
2018-03-19T01:08:45.800Z,68.74
2018-03-19T01:11:14.348Z,68.65
2018-03-19T01:13:43.259Z,66.75
2018-03-19T01:16:11.820Z,67.15
2018-03-19T01:18:40.368Z,67.29
2018-03-19T01:21:09.939Z,68.02
2018-03-19T01:23:38.533Z,66.83
2018-03-19T01:26:07.106Z,67.61
2018-03-19T01:28:35.743Z,68.15
2018-03-19T01:31:04.324Z,67.15
2018-03-19T01:33:32.891Z,67.69
2018-03-19T01:36:02.367Z,66.60
2018-03-19T01:38:30.908Z,68.38
2018-03-19T01:40:59.461Z,68.32
2018-03-19T01:43:28.925Z,67.92
2018-03-19T01:45:57.480Z,67.41
2018-03-19T01:48:26.300Z,67.82
2018-03-19T01:50:55.672Z,69.68
2018-03-19T01:53:24.219Z,68.95
2018-03-19T01:55:52.816Z,68.62
2018-03-19T01:58:22.676Z,68.17
2018-03-19T02:00:51.278Z,67.36
2018-03-19T02:03:19.824Z,68.59
2018-03-19T02:05:48.425Z,68.34
2018-03-19T02:08:17.800Z,69.34
2018-03-19T02:10:46.348Z,69.37
2018-03-19T02:13:16.061Z,68.46
2018-03-19T02:15:45.377Z,68.90
2018-03-19T02:18:13.944Z,69.37
2018-03-19T02:20:43.516Z,68.67
2018-03-19T02:23:12.383Z,69.00
2018-03-19T02:25:40.938Z,68.49
2018-03-19T02:28:09.769Z,70.28
2018-03-19T02:30:38.319Z,68.74
2018-03-19T02:33:06.916Z,69.69
2018-03-19T02:35:35.654Z,70.47
2018-03-19T02:38:04.980Z,69.12
2018-03-19T02:40:33.534Z,69.78
2018-03-19T02:43:02.134Z,69.62
2018-03-19T02:45:31.453Z,69.00
2018-03-19T02:48:00.013Z,68.20
2018-03-19T02:50:29.577Z,68.65
2018-03-19T02:52:58.132Z,68.05
2018-03-19T02:55:26.690Z,69.04
2018-03-19T02:57:56.356Z,69.36
2018-03-19T03:00:25.781Z,70.16
2018-03-19T03:02:54.821Z,68.50
2018-03-19T03:05:23.447Z,69.67
2018-03-19T03:07:52.023Z,70.72
2018-03-19T03:10:20.575Z,69.93
2018-03-19T03:12:49.185Z,70.16
2018-03-19T03:15:17.792Z,70.00
2018-03-19T03:17:46.359Z,69.47
2018-03-19T03:20:15.046Z,70.14
2018-03-19T03:22:43.621Z,68.20
2018-03-19T03:25:12.160Z,70.88
2018-03-19T03:27:40.752Z,72.51
2018-03-19T03:30:09.306Z,70.34
2018-03-19T03:32:37.857Z,70.90
2018-03-19T03:35:06.460Z,71.93
2018-03-19T03:37:35.075Z,71.84
2018-03-19T03:40:03.673Z,71.57
2018-03-19T03:42:32.269Z,70.36
2018-03-19T03:45:00.824Z,69.83
2018-03-19T03:47:30.136Z,68.12
2018-03-19T03:49:58.958Z,68.30
2018-03-19T03:52:27.442Z,68.66
2018-03-19T03:54:55.920Z,68.35
2018-03-19T03:57:24.446Z,68.96
2018-03-19T03:59:53.758Z,68.41
2018-03-19T04:02:23.020Z,68.35
2018-03-19T04:04:51.939Z,68.25
2018-03-19T04:07:21.204Z,67.13
2018-03-19T04:09:50.659Z,67.10
2018-03-19T04:12:19.336Z,68.26
2018-03-19T04:14:47.832Z,68.61
2018-03-19T04:17:17.081Z,67.95
2018-03-19T04:19:45.789Z,67.56
2018-03-19T04:22:14.275Z,71.61
2018-03-19T04:24:44.483Z,70.42
2018-03-19T04:27:13.939Z,70.77
2018-03-19T04:29:42.414Z,70.52
2018-03-19T04:32:10.894Z,70.14
2018-03-19T04:34:40.327Z,70.90
2018-03-19T04:37:08.864Z,71.89
2018-03-19T04:39:37.364Z,72.42
2018-03-19T04:42:05.903Z,73.35
2018-03-19T04:44:34.425Z,73.19
2018-03-19T04:47:02.924Z,72.99
2018-03-19T04:49:31.515Z,79.67
2018-03-19T04:52:00.833Z,73.55
2018-03-19T04:54:29.393Z,72.75
2018-03-19T04:56:58.441Z,73.00
2018-03-19T04:59:27.744Z,73.87
2018-03-19T05:01:56.343Z,73.06
2018-03-19T05:04:25.273Z,73.50
2018-03-19T05:06:53.844Z,74.63
2018-03-19T05:09:22.402Z,77.46
2018-03-19T05:11:51.149Z,75.00
2018-03-19T05:14:20.563Z,48.56
2018-03-19T05:16:49.888Z,44.87
2018-03-19T05:19:18.562Z,46.45
2018-03-19T05:24:58.177Z,47.97
2018-03-19T05:27:26.739Z,47.00
2018-03-19T05:29:56.061Z,48.29
2018-03-19T05:32:24.680Z,48.31
2018-03-19T05:34:54.045Z,46.42
2018-03-19T05:37:22.616Z,47.05
2018-03-19T05:39:51.304Z,44.98
2018-03-19T05:42:20.649Z,46.23
2018-03-19T05:44:49.965Z,51.29
2018-03-19T05:47:18.556Z,46.85
2018-03-19T05:49:47.112Z,48.83
2018-03-19T05:52:16.425Z,49.23
2018-03-19T05:54:45.178Z,48.17
2018-03-19T05:57:13.729Z,45.31
2018-03-19T05:59:42.283Z,48.73
2018-03-19T06:02:10.889Z,43.79
2018-03-19T06:04:39.481Z,43.52
2018-03-19T06:07:08.036Z,47.63
2018-03-19T06:09:36.862Z,44.61
2018-03-19T06:12:05.437Z,45.72
2018-03-19T06:14:33.993Z,46.09
2018-03-19T06:17:02.809Z,45.60
2018-03-19T06:19:31.364Z,43.82
2018-03-19T06:21:59.926Z,45.30
2018-03-19T06:24:29.617Z,43.19
2018-03-19T06:26:58.938Z,48.76
2018-03-19T06:29:28.244Z,45.95
2018-03-19T06:31:56.842Z,48.05
2018-03-19T06:34:25.386Z,47.19
2018-03-19T06:36:53.941Z,48.71
2018-03-19T06:39:22.537Z,47.33
2018-03-19T06:41:51.093Z,45.20
2018-03-19T06:44:19.640Z,46.00
2018-03-19T06:46:48.473Z,42.75
2018-03-19T06:49:17.020Z,44.86
2018-03-19T06:51:45.567Z,48.21
2018-03-19T06:54:14.320Z,49.50
2018-03-19T06:56:42.889Z,48.99
2018-03-19T06:59:11.436Z,49.05
2018-03-19T07:01:41.005Z,41.92
2018-03-19T07:04:10.316Z,44.80
2018-03-19T07:06:38.861Z,42.92
2018-03-19T07:09:07.461Z,41.31
2018-03-19T07:11:36.044Z,43.50
2018-03-19T07:14:04.682Z,42.87
2018-03-19T07:16:34.140Z,44.75
2018-03-19T07:19:02.693Z,45.08
2018-03-19T07:21:31.241Z,44.42
2018-03-19T07:24:00.628Z,45.91
2018-03-19T07:26:29.191Z,44.67
2018-03-19T07:28:57.736Z,46.85
2018-03-19T07:31:26.353Z,44.29
2018-03-19T07:33:54.897Z,43.53
2018-03-19T07:36:23.488Z,39.30
2018-03-19T07:38:52.085Z,41.28
2018-03-19T07:41:20.666Z,40.09
2018-03-19T07:43:49.221Z,40.67
2018-03-19T07:46:18.584Z,43.71
2018-03-19T07:48:47.133Z,44.98
2018-03-19T07:51:15.676Z,42.31
2018-03-19T07:53:45.049Z,43.10
2018-03-19T07:56:13.610Z,44.13
2018-03-19T07:58:42.168Z,43.20
2018-03-19T08:01:11.100Z,43.43
2018-03-19T08:03:39.644Z,42.58
2018-03-19T08:06:08.192Z,42.03
2018-03-19T08:08:37.645Z,43.08
2018-03-19T08:11:06.198Z,41.55
2018-03-19T08:13:34.755Z,42.84
2018-03-19T08:16:03.720Z,43.14
2018-03-19T08:18:32.274Z,44.07
2018-03-19T08:21:00.826Z,37.35
2018-03-19T08:23:30.340Z,36.90
2018-03-19T08:25:59.653Z,37.89
2018-03-19T08:28:28.201Z,36.56
2018-03-19T08:30:56.895Z,36.70
2018-03-19T08:33:26.222Z,34.22
2018-03-19T08:35:54.797Z,37.04
2018-03-19T08:38:24.168Z,37.78
2018-03-19T08:40:52.745Z,35.67
2018-03-19T08:43:21.313Z,35.47
2018-03-19T08:45:49.909Z,36.66
2018-03-19T08:48:18.464Z,35.87
2018-03-19T08:50:47.018Z,36.76
2018-03-19T08:53:15.621Z,37.73
2018-03-19T08:55:44.168Z,41.00
2018-03-19T08:58:12.721Z,41.92
2018-03-19T09:00:42.292Z,40.26
2018-03-19T09:03:10.841Z,37.47
2018-03-19T09:05:39.405Z,40.27
2018-03-19T09:08:08.049Z,41.20
2018-03-19T09:10:36.601Z,37.19
2018-03-19T09:13:05.154Z,36.65
2018-03-19T09:15:34.520Z,54.01
2018-03-19T09:18:03.083Z,37.54
2018-03-19T09:20:31.641Z,36.29
2018-03-19T09:23:00.475Z,34.62
2018-03-19T09:25:30.128Z,34.59
2018-03-19T09:27:58.690Z,35.15
2018-03-19T09:30:28.063Z,34.65
2018-03-19T09:32:56.613Z,36.45
2018-03-19T09:35:25.157Z,35.37
2018-03-19T09:37:53.905Z,32.38
2018-03-19T09:40:22.490Z,35.35
2018-03-19T09:42:51.037Z,35.79
2018-03-19T09:45:19.964Z,33.62
2018-03-19T09:47:48.517Z,31.14
2018-03-19T09:50:17.063Z,33.86
2018-03-19T09:52:45.822Z,34.54
2018-03-19T09:55:14.378Z,33.03
2018-03-19T09:57:42.933Z,32.67
2018-03-19T10:00:12.592Z,29.52
2018-03-19T10:02:41.145Z,30.30
2018-03-19T10:05:09.723Z,33.86
2018-03-19T10:07:38.486Z,32.26
2018-03-19T10:10:07.825Z,30.34
2018-03-19T10:12:36.442Z,31.41
2018-03-19T10:15:05.085Z,31.02
2018-03-19T10:17:33.633Z,33.18
2018-03-19T10:20:02.977Z,31.76
2018-03-19T10:22:31.582Z,33.00
2018-03-19T10:25:00.137Z,30.94
2018-03-19T10:27:28.736Z,34.63
2018-03-19T10:29:57.436Z,32.66
2018-03-19T10:32:25.985Z,30.25
2018-03-19T10:34:54.533Z,34.39
2018-03-19T10:37:23.133Z,29.57
2018-03-19T10:39:52.446Z,29.91
2018-03-19T10:42:20.998Z,29.15
2018-03-19T10:44:50.381Z,27.86
2018-03-19T10:47:18.928Z,29.15
2018-03-19T10:49:47.493Z,29.38
2018-03-19T10:52:16.090Z,28.04
2018-03-19T10:54:44.641Z,27.78
2018-03-19T10:57:13.961Z,28.87
2018-03-19T10:59:43.503Z,30.67
2018-03-19T11:05:22.645Z,29.27
2018-03-19T11:07:56.458Z,30.45
2018-03-19T11:10:25.091Z,33.52
2018-03-19T11:12:54.416Z,33.48
2018-03-19T11:15:22.976Z,32.04
2018-03-19T11:17:51.627Z,33.84
2018-03-19T11:20:20.176Z,39.84
2018-03-19T11:22:48.758Z,33.15
2018-03-19T11:25:17.364Z,31.56
2018-03-19T11:27:45.925Z,36.16
2018-03-19T11:30:14.477Z,34.25
2018-03-19T11:32:43.316Z,35.09
2018-03-19T11:35:11.873Z,37.27
2018-03-19T11:37:41.189Z,34.85
2018-03-19T11:40:09.908Z,35.62
2018-03-19T11:42:38.459Z,26.53
2018-03-19T11:45:07.014Z,39.67
2018-03-19T11:47:36.393Z,33.61
2018-03-19T11:50:04.977Z,32.23
2018-03-19T11:52:33.537Z,32.96
2018-03-19T11:55:02.147Z,34.92
2018-03-19T11:57:30.709Z,34.55
2018-03-19T11:59:59.297Z,31.96
2018-03-19T12:02:27.799Z,40.87
2018-03-19T12:04:56.240Z,31.77
2018-03-19T12:07:24.662Z,30.29
2018-03-19T12:09:53.136Z,29.15
2018-03-19T12:12:21.605Z,35.19
2018-03-19T12:14:50.028Z,30.87
2018-03-19T12:17:19.568Z,100.00
2018-03-19T12:19:48.027Z,100.00
2018-03-19T12:22:16.472Z,100.00
2018-03-19T12:24:45.015Z,100.00
2018-03-19T12:27:13.484Z,100.00
2018-03-19T12:29:41.931Z,100.00
2018-03-19T12:32:10.634Z,100.00
2018-03-19T12:34:44.850Z,100.00
2018-03-19T12:37:13.336Z,100.00
2018-03-19T12:39:41.795Z,100.00
2018-03-19T12:42:10.240Z,100.00
2018-03-19T12:44:38.742Z,100.00
2018-03-19T12:47:07.204Z,100.00
2018-03-19T12:49:35.655Z,100.00
2018-03-19T12:52:04.915Z,100.00
2018-03-19T12:54:33.372Z,100.00
2018-03-19T12:57:02.618Z,100.00
2018-03-19T12:59:31.127Z,100.00
2018-03-19T13:01:59.628Z,100.00
2018-03-19T13:04:28.082Z,100.00
2018-03-19T13:06:56.596Z,100.00
2018-03-19T13:09:25.833Z,100.00
2018-03-19T13:11:54.361Z,100.00
2018-03-19T13:14:23.213Z,100.00
2018-03-19T13:16:51.673Z,100.00
2018-03-19T13:19:20.116Z,100.00
2018-03-19T13:21:48.973Z,100.00
2018-03-19T13:24:17.403Z,100.00
2018-03-19T13:26:45.860Z,100.00
2018-03-19T13:29:14.380Z,100.00
2018-03-19T13:31:42.854Z,100.00
2018-03-19T13:34:12.087Z,100.00
2018-03-19T13:36:40.682Z,100.00
2018-03-19T13:39:09.138Z,100.00
2018-03-19T13:41:37.587Z,100.00
2018-03-19T13:44:06.867Z,100.00
2018-03-19T13:46:35.339Z,100.00
2018-03-19T13:49:03.800Z,100.00
2018-03-19T13:51:32.316Z,100.00
2018-03-19T13:54:01.445Z,100.00
2018-03-19T13:56:29.897Z,100.00
2018-03-19T13:58:58.436Z,100.00
2018-03-19T14:01:26.887Z,100.00
2018-03-19T14:03:56.118Z,100.00
2018-03-19T14:06:24.610Z,100.00
2018-03-19T14:08:53.068Z,100.00
2018-03-19T14:11:21.552Z,100.00
2018-03-19T14:13:50.036Z,100.00
2018-03-19T14:16:18.492Z,100.00
2018-03-19T14:18:46.950Z,100.00
2018-03-19T14:21:15.450Z,100.00
2018-03-19T14:23:44.711Z,100.00
2018-03-19T14:26:13.939Z,100.00
2018-03-19T14:28:42.816Z,100.00
2018-03-19T14:31:11.269Z,100.00
2018-03-19T14:33:40.485Z,100.00
2018-03-19T14:36:08.992Z,100.00
2018-03-19T14:38:37.440Z,100.00
2018-03-19T14:41:05.891Z,100.00
2018-03-19T14:43:35.336Z,100.00
2018-03-19T14:46:03.812Z,100.00
2018-03-19T14:48:32.262Z,100.00
2018-03-19T14:51:01.700Z,100.00
2018-03-19T14:53:30.154Z,100.00
2018-03-19T14:55:58.611Z,100.00
2018-03-19T14:58:27.236Z,100.00
2018-03-19T15:00:55.718Z,100.00
2018-03-19T15:03:24.169Z,100.00
2018-03-19T15:05:53.070Z,100.00
2018-03-19T15:08:21.533Z,100.00
2018-03-19T15:10:49.996Z,100.00
2018-03-19T15:13:18.580Z,100.00
2018-03-19T15:15:47.031Z,100.00
2018-03-19T15:18:15.480Z,100.00
2018-03-19T15:20:44.258Z,100.00
2018-03-19T15:23:12.719Z,100.00
2018-03-19T15:25:41.506Z,100.00
2018-03-19T15:28:10.015Z,100.00
2018-03-19T15:30:39.240Z,100.00
2018-03-19T15:33:07.692Z,100.00
2018-03-19T15:35:37.338Z,100.00
2018-03-19T15:38:05.785Z,100.00
2018-03-19T15:40:35.016Z,100.00
2018-03-19T15:43:03.699Z,100.00
2018-03-19T15:45:32.153Z,100.00
2018-03-19T15:48:01.380Z,100.00
2018-03-19T15:50:30.348Z,100.00
2018-03-19T15:52:59.570Z,100.00
2018-03-19T15:55:28.046Z,100.00
2018-03-19T15:57:56.636Z,100.00
2018-03-19T16:00:25.097Z,100.00
2018-03-19T16:02:53.547Z,100.00
2018-03-19T16:05:22.822Z,100.00
2018-03-19T16:07:51.287Z,100.00
2018-03-19T16:10:19.737Z,100.00
2018-03-19T16:12:48.328Z,100.00
2018-03-19T16:15:16.789Z,100.00
2018-03-19T16:17:46.063Z,100.00
2018-03-19T16:20:14.675Z,100.00
2018-03-19T16:22:43.899Z,100.00
2018-03-19T16:25:12.353Z,100.00
2018-03-19T16:27:41.791Z,100.00
2018-03-19T16:30:10.234Z,36.46
2018-03-19T16:32:39.430Z,33.33
2018-03-19T16:35:07.919Z,33.69
2018-03-19T16:37:37.125Z,33.50
2018-03-19T16:40:05.571Z,33.86
2018-03-19T16:42:34.197Z,35.67
2018-03-19T16:45:02.643Z,100.00
2018-03-19T16:47:31.105Z,100.00
2018-03-19T16:49:59.608Z,100.00
2018-03-19T16:52:28.832Z,100.00
2018-03-19T16:54:57.278Z,100.00
2018-03-19T16:57:26.560Z,100.00
2018-03-19T16:59:55.015Z,100.00
2018-03-19T17:02:23.481Z,100.00
2018-03-19T17:04:52.788Z,100.00
2018-03-19T17:07:21.248Z,100.00
2018-03-19T17:09:49.695Z,100.00
2018-03-19T17:12:18.343Z,100.00
2018-03-19T17:14:46.795Z,100.00
2018-03-19T17:17:15.239Z,100.00
2018-03-19T17:19:44.511Z,100.00
2018-03-19T17:22:12.984Z,100.00
2018-03-19T17:24:43.784Z,100.00
2018-03-19T17:27:12.412Z,100.00
2018-03-19T17:29:41.634Z,100.00
2018-03-19T17:32:10.100Z,100.00
2018-03-19T17:34:38.605Z,100.00
2018-03-19T17:37:07.875Z,100.00
2018-03-19T17:39:36.328Z,100.00
2018-03-19T17:42:05.714Z,100.00
2018-03-19T17:44:34.203Z,100.00
2018-03-19T17:47:02.664Z,100.00
2018-03-19T17:49:31.523Z,100.00
2018-03-19T17:52:00.093Z,100.00
2018-03-19T17:54:28.669Z,100.00
2018-03-19T17:56:57.301Z,100.00
2018-03-19T17:59:25.893Z,100.00
2018-03-19T18:01:54.517Z,100.00
2018-03-19T18:04:23.150Z,100.00
2018-03-19T18:06:51.732Z,100.00
2018-03-19T18:09:20.314Z,100.00
2018-03-19T18:11:49.078Z,100.00
2018-03-19T18:14:18.451Z,100.00
2018-03-19T18:16:47.036Z,100.00
2018-03-19T18:19:15.679Z,100.00
2018-03-19T18:21:44.253Z,100.00
2018-03-19T18:24:12.832Z,100.00
2018-03-19T18:26:41.502Z,100.00
2018-03-19T18:29:10.086Z,100.00
2018-03-19T18:31:38.659Z,100.00
2018-03-19T18:34:07.291Z,100.00
2018-03-19T18:36:35.904Z,100.00
2018-03-19T18:39:05.320Z,100.00
2018-03-19T18:41:34.254Z,100.00
2018-03-19T18:44:02.855Z,100.00
2018-03-19T18:46:31.429Z,100.00
2018-03-19T18:49:00.166Z,100.00
2018-03-19T18:51:28.785Z,100.00
2018-03-19T18:53:58.100Z,100.00
2018-03-19T18:56:27.673Z,100.00
2018-03-19T18:58:56.231Z,28.38
2018-03-19T19:01:24.801Z,100.00
2018-03-19T19:06:35.129Z,27.40
2018-03-19T19:09:06.321Z,26.68
2018-03-19T19:11:34.919Z,30.98
2018-03-19T19:14:03.514Z,26.99
2018-03-19T19:16:32.127Z,26.37
2018-03-19T19:19:00.718Z,26.02
2018-03-19T19:21:29.286Z,26.80
2018-03-19T19:23:58.673Z,26.89
2018-03-19T19:26:27.246Z,27.81
2018-03-19T19:28:56.624Z,28.74
2018-03-19T19:31:25.235Z,24.78
2018-03-19T19:33:53.833Z,27.75
2018-03-19T19:36:22.398Z,25.71
2018-03-19T19:38:50.995Z,27.68
2018-03-19T19:41:19.559Z,26.72
2018-03-19T19:43:48.119Z,25.82
2018-03-19T19:46:16.751Z,26.60
2018-03-19T19:48:45.316Z,25.99
2018-03-19T19:51:13.881Z,25.90
2018-03-19T19:53:42.489Z,27.60
2018-03-19T19:56:11.064Z,25.65
2018-03-19T19:58:39.623Z,27.06
2018-03-19T20:01:08.226Z,25.67
2018-03-19T20:03:36.785Z,23.81
2018-03-19T20:06:05.379Z,23.41
2018-03-19T20:08:34.002Z,27.65
2018-03-19T20:11:02.584Z,26.81
2018-03-19T20:13:31.937Z,23.38
2018-03-19T20:16:00.528Z,23.46
2018-03-19T20:18:29.111Z,23.96
2018-03-19T20:20:57.683Z,24.63
2018-03-19T20:23:26.481Z,24.96
2018-03-19T20:25:56.005Z,23.84
2018-03-19T20:28:25.361Z,24.38
2018-03-19T20:30:53.970Z,24.60
2018-03-19T20:33:22.531Z,26.28
2018-03-19T20:35:51.259Z,25.97
2018-03-19T20:38:20.022Z,24.89
2018-03-19T20:40:48.581Z,25.78
2018-03-19T20:43:17.783Z,26.22
2018-03-19T20:45:46.404Z,26.41
2018-03-19T20:48:14.978Z,26.11
2018-03-19T20:50:43.528Z,26.06
2018-03-19T20:53:12.348Z,27.64
2018-03-19T20:55:40.909Z,27.40
2018-03-19T20:58:09.515Z,28.59
2018-03-19T21:00:38.125Z,26.79
2018-03-19T21:03:06.729Z,29.30
2018-03-19T21:05:36.058Z,27.42
2018-03-19T21:08:04.690Z,27.32
2018-03-19T21:10:34.012Z,26.17
2018-03-19T21:13:03.330Z,26.47
2018-03-19T21:15:32.021Z,27.41
2018-03-19T21:18:00.584Z,28.16
2018-03-19T21:20:29.902Z,27.65
2018-03-19T21:22:58.532Z,28.46
2018-03-19T21:25:27.215Z,27.90
2018-03-19T21:27:55.797Z,27.12
2018-03-19T21:30:24.472Z,24.87
2018-03-19T21:32:53.030Z,24.76
2018-03-19T21:35:21.605Z,25.78
2018-03-19T21:37:50.352Z,25.44
2018-03-19T21:40:18.914Z,26.46
2018-03-19T21:42:47.472Z,25.56
2018-03-19T21:45:16.101Z,24.50
2018-03-19T21:47:44.663Z,25.54
2018-03-19T21:50:13.228Z,27.15
2018-03-19T21:52:41.832Z,26.72
2018-03-19T21:55:10.413Z,25.76
2018-03-19T21:57:39.748Z,25.82
2018-03-19T22:00:09.426Z,27.03
2018-03-19T22:02:37.994Z,25.89
2018-03-19T22:05:06.589Z,28.87
2018-03-19T22:07:35.208Z,25.61
2018-03-19T22:10:04.582Z,28.60
2018-03-19T22:12:33.166Z,26.62
2018-03-19T22:15:02.587Z,25.61
2018-03-19T22:17:31.926Z,25.36
2018-03-19T22:20:00.478Z,24.21
2018-03-19T22:22:29.857Z,24.65
2018-03-19T22:24:58.413Z,26.83
2018-03-19T22:27:26.970Z,24.50
2018-03-19T22:29:55.906Z,25.95
2018-03-19T22:32:24.457Z,26.51
2018-03-19T22:34:53.019Z,26.30
2018-03-19T22:37:21.852Z,27.43
2018-03-19T22:39:50.410Z,27.52
2018-03-19T22:42:18.965Z,25.58
2018-03-19T22:44:48.531Z,24.19
2018-03-19T22:47:17.222Z,27.82
2018-03-19T22:49:45.797Z,26.36
2018-03-19T22:52:14.534Z,24.77
2018-03-19T22:57:18.641Z,27.36
2018-03-19T22:59:47.201Z,26.44
2018-03-19T23:02:15.788Z,25.41
2018-03-19T23:04:57.233Z,24.58
2018-03-19T23:07:25.797Z,27.58
2018-03-19T23:09:55.105Z,26.27
2018-03-19T23:12:23.730Z,26.04
2018-03-19T23:14:52.282Z,26.44
2018-03-19T23:17:20.829Z,25.78
2018-03-19T23:19:49.692Z,24.85
2018-03-19T23:22:18.241Z,25.98
2018-03-19T23:24:46.797Z,25.34
2018-03-19T23:27:16.472Z,23.56
2018-03-19T23:29:45.023Z,26.23
2018-03-19T23:32:13.612Z,25.09
2018-03-19T23:34:42.423Z,25.33
2018-03-19T23:37:10.980Z,24.13
2018-03-19T23:39:39.532Z,24.61
2018-03-19T23:42:09.094Z,25.14
2018-03-19T23:44:37.651Z,26.17
2018-03-19T23:47:06.240Z,24.46
2018-03-19T23:49:35.042Z,24.53
2018-03-19T23:52:03.599Z,24.12
2018-03-19T23:54:32.166Z,24.03
2018-03-19T23:57:00.773Z,24.90
2018-03-19T23:59:29.329Z,25.10
